EXS1325 LEIB-EGNX
Flight info
| Callsign | EXS1325 |
|---|---|
| Flight time | N/A |
| Altitude | 34000 |
| Route | EPAMA DCT MARTA DCT EBROX DCT UMURE N863 GIROM DCT GONUP DCT TUPAR UN861 DIKRO UM184 KOTEM/N0402F240 M184 HEMEL |
| Aircraft | A321/M-SDE3FGHIRWY/LB1 |
Departure
| Time | 2026-04-30 22:01 |
|---|---|
| Airport | Ibiza Airport (LEIB) |
Arrival
| Time | N/A |
|---|---|
| Airport | East Midlands Airport (EGNX) |
| Time | Latitude | Longitude | Altitude | Speed | Heading |
|---|---|---|---|---|---|
| 2026-04-30 21:19 | 38.87620 | 1.37396 | 8 ft | 0 kts | 332° |
| 2026-04-30 21:55 | 38.87621 | 1.37396 | 8 ft | 0 kts | 332° |
| 2026-04-30 21:55 | 38.87640 | 1.37383 | 8 ft | 8 kts | 332° |
| 2026-04-30 21:56 | 38.87657 | 1.37338 | 8 ft | 5 kts | 255° |
| 2026-04-30 21:56 | 38.87644 | 1.37302 | 8 ft | 4 kts | 243° |
| 2026-04-30 21:56 | 38.87628 | 1.37261 | 8 ft | 8 kts | 243° |
| 2026-04-30 21:56 | 38.87600 | 1.37195 | 8 ft | 8 kts | 242° |
| 2026-04-30 21:57 | 38.87574 | 1.37132 | 8 ft | 9 kts | 242° |
| 2026-04-30 21:57 | 38.87539 | 1.37046 | 8 ft | 12 kts | 242° |
| 2026-04-30 21:57 | 38.87491 | 1.36930 | 9 ft | 16 kts | 242° |
| 2026-04-30 21:57 | 38.87437 | 1.36811 | 8 ft | 15 kts | 220° |
| 2026-04-30 21:58 | 38.87348 | 1.36833 | 8 ft | 13 kts | 153° |
| 2026-04-30 21:58 | 38.87274 | 1.36833 | 9 ft | 11 kts | 229° |
| 2026-04-30 21:58 | 38.87226 | 1.36721 | 9 ft | 18 kts | 243° |
| 2026-04-30 21:58 | 38.87160 | 1.36555 | 9 ft | 24 kts | 243° |
| 2026-04-30 21:59 | 38.87078 | 1.36357 | 10 ft | 25 kts | 242° |
| 2026-04-30 21:59 | 38.86997 | 1.36162 | 8 ft | 24 kts | 242° |
| 2026-04-30 21:59 | 38.86920 | 1.35976 | 8 ft | 23 kts | 242° |
| 2026-04-30 22:00 | 38.86758 | 1.35863 | 6 ft | 14 kts | 149° |
| 2026-04-30 22:00 | 38.86772 | 1.36076 | 5 ft | 25 kts | 63° |
| 2026-04-30 22:00 | 38.86972 | 1.36559 | 7 ft | 95 kts | 62° |
| 2026-04-30 22:01 | 38.87368 | 1.37514 | 10 ft | 147 kts | 62° |
| 2026-04-30 22:01 | 38.87896 | 1.38815 | 218 ft | 171 kts | 64° |
| 2026-04-30 22:01 | 38.88329 | 1.40218 | 859 ft | 169 kts | 77° |
| 2026-04-30 22:01 | 38.88584 | 1.41685 | 1508 ft | 168 kts | 77° |
| 2026-04-30 22:02 | 38.88848 | 1.43148 | 2006 ft | 172 kts | 77° |
| 2026-04-30 22:02 | 38.89133 | 1.44725 | 2160 ft | 191 kts | 77° |
| 2026-04-30 22:02 | 38.89448 | 1.46457 | 2309 ft | 207 kts | 77° |
| 2026-04-30 22:02 | 38.89780 | 1.48292 | 2581 ft | 213 kts | 77° |
| 2026-04-30 22:03 | 38.90114 | 1.50150 | 2947 ft | 214 kts | 77° |
| 2026-04-30 22:03 | 38.90450 | 1.52021 | 3313 ft | 216 kts | 76° |
| 2026-04-30 22:03 | 38.90894 | 1.53861 | 3656 ft | 217 kts | 63° |
| 2026-04-30 22:03 | 38.91836 | 1.55406 | 3856 ft | 229 kts | 42° |
| 2026-04-30 22:04 | 38.93075 | 1.56821 | 4133 ft | 245 kts | 41° |
| 2026-04-30 22:04 | 38.94400 | 1.58332 | 4550 ft | 260 kts | 41° |
| 2026-04-30 22:04 | 38.97146 | 1.61477 | 5956 ft | 268 kts | 40° |
| 2026-04-30 22:05 | 38.98547 | 1.63087 | 6650 ft | 272 kts | 40° |
| 2026-04-30 22:05 | 39.00043 | 1.64542 | 7265 ft | 276 kts | 27° |
| 2026-04-30 22:05 | 39.01836 | 1.65430 | 7874 ft | 279 kts | 10° |
| 2026-04-30 22:05 | 39.03771 | 1.65743 | 8501 ft | 283 kts | 4° |
| 2026-04-30 22:06 | 39.05748 | 1.66000 | 9130 ft | 287 kts | 4° |
| 2026-04-30 22:06 | 39.09787 | 1.66145 | 10347 ft | 293 kts | 346° |
| 2026-04-30 22:06 | 39.11783 | 1.65361 | 10575 ft | 310 kts | 334° |
| 2026-04-30 22:07 | 39.13820 | 1.64197 | 10698 ft | 331 kts | 334° |
| 2026-04-30 22:07 | 39.15994 | 1.62959 | 10869 ft | 349 kts | 334° |
| 2026-04-30 22:07 | 39.18239 | 1.61695 | 11343 ft | 356 kts | 334° |
| 2026-04-30 22:07 | 39.20521 | 1.60418 | 11941 ft | 359 kts | 334° |
| 2026-04-30 22:08 | 39.22823 | 1.59132 | 12559 ft | 362 kts | 334° |
| 2026-04-30 22:08 | 39.25037 | 1.57894 | 13164 ft | 365 kts | 333° |
| 2026-04-30 22:08 | 39.27380 | 1.56583 | 13783 ft | 368 kts | 333° |
| 2026-04-30 22:08 | 39.29738 | 1.55261 | 14339 ft | 371 kts | 333° |
| 2026-04-30 22:09 | 39.32118 | 1.53929 | 14876 ft | 374 kts | 334° |
| 2026-04-30 22:09 | 39.34523 | 1.52584 | 15400 ft | 378 kts | 334° |
| 2026-04-30 22:09 | 39.36948 | 1.51224 | 15892 ft | 382 kts | 334° |
| 2026-04-30 22:09 | 39.39396 | 1.49850 | 16401 ft | 385 kts | 334° |
| 2026-04-30 22:10 | 39.41864 | 1.48463 | 16919 ft | 388 kts | 334° |
| 2026-04-30 22:10 | 39.44351 | 1.47063 | 17417 ft | 391 kts | 334° |
| 2026-04-30 22:10 | 39.46858 | 1.45651 | 17910 ft | 395 kts | 334° |
| 2026-04-30 22:10 | 39.48531 | 1.44707 | 18235 ft | 397 kts | 334° |
| 2026-04-30 22:11 | 39.54465 | 1.41360 | 19214 ft | 403 kts | 334° |
| 2026-04-30 22:11 | 39.57045 | 1.39901 | 19634 ft | 406 kts | 334° |
| 2026-04-30 22:11 | 39.59680 | 1.38544 | 20044 ft | 410 kts | 340° |
| 2026-04-30 22:12 | 39.62485 | 1.37751 | 20446 ft | 416 kts | 351° |
| 2026-04-30 22:12 | 39.64399 | 1.37495 | 20711 ft | 418 kts | 352° |
| 2026-04-30 22:12 | 39.67302 | 1.37121 | 21121 ft | 420 kts | 352° |
| 2026-04-30 22:12 | 39.70222 | 1.36741 | 21525 ft | 423 kts | 352° |
| 2026-04-30 22:13 | 39.73159 | 1.36355 | 21921 ft | 426 kts | 352° |
| 2026-04-30 22:13 | 39.76114 | 1.35961 | 22322 ft | 428 kts | 352° |
| 2026-04-30 22:13 | 39.79087 | 1.35564 | 22717 ft | 431 kts | 352° |
| 2026-04-30 22:13 | 39.82077 | 1.35167 | 23137 ft | 433 kts | 352° |
| 2026-04-30 22:14 | 39.85082 | 1.34768 | 23546 ft | 435 kts | 352° |
| 2026-04-30 22:14 | 39.88103 | 1.34368 | 23892 ft | 438 kts | 352° |
| 2026-04-30 22:14 | 39.91139 | 1.33962 | 24211 ft | 440 kts | 352° |
| 2026-04-30 22:14 | 39.94191 | 1.33552 | 24533 ft | 442 kts | 351° |
| 2026-04-30 22:15 | 39.97263 | 1.33139 | 24847 ft | 444 kts | 351° |
| 2026-04-30 22:15 | 40.00343 | 1.32728 | 25152 ft | 446 kts | 351° |
| 2026-04-30 22:15 | 40.03438 | 1.32315 | 25469 ft | 448 kts | 351° |
| 2026-04-30 22:15 | 40.06553 | 1.31897 | 25742 ft | 451 kts | 351° |
| 2026-04-30 22:16 | 40.09684 | 1.31474 | 26041 ft | 453 kts | 351° |
| 2026-04-30 22:16 | 40.12787 | 1.31052 | 26338 ft | 455 kts | 351° |
| 2026-04-30 22:17 | 40.22308 | 1.29768 | 27209 ft | 461 kts | 351° |
| 2026-04-30 22:17 | 40.25515 | 1.29339 | 27498 ft | 463 kts | 351° |
| 2026-04-30 22:17 | 40.31951 | 1.28480 | 28061 ft | 467 kts | 351° |
| 2026-04-30 22:18 | 40.35186 | 1.28041 | 28335 ft | 468 kts | 351° |
| 2026-04-30 22:18 | 40.41705 | 1.27157 | 28877 ft | 472 kts | 351° |
| 2026-04-30 22:19 | 40.48253 | 1.26270 | 29537 ft | 472 kts | 351° |
| 2026-04-30 22:19 | 40.51516 | 1.25828 | 29936 ft | 471 kts | 351° |
| 2026-04-30 22:19 | 40.57976 | 1.24951 | 30585 ft | 469 kts | 350° |
| 2026-04-30 22:20 | 40.61219 | 1.24509 | 30896 ft | 468 kts | 350° |
| 2026-04-30 22:20 | 40.67704 | 1.23624 | 31517 ft | 467 kts | 350° |
| 2026-04-30 22:20 | 40.70924 | 1.23183 | 31833 ft | 466 kts | 349° |
| 2026-04-30 22:21 | 40.74147 | 1.22739 | 32136 ft | 465 kts | 349° |
| 2026-04-30 22:21 | 40.77364 | 1.22295 | 32442 ft | 465 kts | 349° |
| 2026-04-30 22:21 | 40.80584 | 1.21852 | 32763 ft | 464 kts | 349° |
| 2026-04-30 22:21 | 40.83749 | 1.21418 | 33068 ft | 463 kts | 349° |
| 2026-04-30 22:22 | 40.86952 | 1.20979 | 33375 ft | 462 kts | 349° |
| 2026-04-30 22:22 | 40.90193 | 1.20534 | 33693 ft | 462 kts | 349° |
| 2026-04-30 22:22 | 40.93384 | 1.20095 | 33936 ft | 463 kts | 350° |
| 2026-04-30 22:22 | 40.96549 | 1.19662 | 34119 ft | 464 kts | 350° |
| 2026-04-30 22:23 | 41.02934 | 1.18788 | 34166 ft | 459 kts | 350° |
| 2026-04-30 22:23 | 41.09289 | 1.17907 | 34166 ft | 458 kts | 350° |
| 2026-04-30 22:24 | 41.15631 | 1.17030 | 34165 ft | 458 kts | 351° |
| 2026-04-30 22:24 | 41.21979 | 1.16307 | 34166 ft | 458 kts | 352° |
| 2026-04-30 22:25 | 41.28338 | 1.15708 | 34167 ft | 458 kts | 352° |
| 2026-04-30 22:25 | 41.34701 | 1.15079 | 34176 ft | 458 kts | 352° |
| 2026-04-30 22:26 | 41.44213 | 1.14065 | 34187 ft | 457 kts | 352° |
| 2026-04-30 22:27 | 41.50541 | 1.13389 | 34188 ft | 456 kts | 352° |
| 2026-04-30 22:27 | 41.59983 | 1.12401 | 34192 ft | 456 kts | 352° |
| 2026-04-30 22:28 | 41.69466 | 1.11397 | 34180 ft | 455 kts | 352° |
| 2026-04-30 22:29 | 41.82079 | 1.10040 | 34152 ft | 455 kts | 352° |
| 2026-04-30 22:31 | 42.04167 | 1.07690 | 34151 ft | 455 kts | 352° |
| 2026-04-30 22:32 | 42.19910 | 1.05997 | 34208 ft | 455 kts | 352° |
| 2026-04-30 22:33 | 42.35640 | 1.04274 | 34217 ft | 453 kts | 352° |
| 2026-04-30 22:35 | 42.51322 | 1.02584 | 34231 ft | 451 kts | 352° |
| 2026-04-30 22:36 | 42.66954 | 1.00875 | 34233 ft | 450 kts | 351° |
| 2026-04-30 22:37 | 42.79347 | 0.99104 | 34225 ft | 443 kts | 341° |
| 2026-04-30 22:38 | 42.91289 | 0.94976 | 34209 ft | 442 kts | 342° |
| 2026-04-30 22:39 | 43.00249 | 0.91884 | 34209 ft | 443 kts | 342° |
| 2026-04-30 22:40 | 43.18111 | 0.85688 | 34207 ft | 442 kts | 341° |
| 2026-04-30 22:41 | 43.32983 | 0.80497 | 34209 ft | 440 kts | 341° |
| 2026-04-30 22:43 | 43.50719 | 0.73992 | 34212 ft | 438 kts | 338° |
| 2026-04-30 22:44 | 43.62235 | 0.68559 | 34204 ft | 437 kts | 337° |
| 2026-04-30 22:45 | 43.79551 | 0.60622 | 34189 ft | 436 kts | 337° |
| 2026-04-30 22:47 | 43.96795 | 0.52693 | 34206 ft | 436 kts | 337° |
| 2026-04-30 22:48 | 44.08289 | 0.47368 | 34217 ft | 435 kts | 337° |
| 2026-04-30 22:49 | 44.25484 | 0.39385 | 34220 ft | 433 kts | 336° |
| 2026-04-30 22:51 | 44.42559 | 0.31372 | 34229 ft | 432 kts | 337° |
| 2026-04-30 22:52 | 44.51094 | 0.27364 | 34218 ft | 431 kts | 337° |
| 2026-04-30 22:53 | 44.62439 | 0.22016 | 34222 ft | 430 kts | 337° |
| 2026-04-30 22:53 | 44.70942 | 0.17989 | 34210 ft | 430 kts | 337° |
| 2026-04-30 22:55 | 44.85113 | 0.11247 | 34198 ft | 430 kts | 337° |
| 2026-04-30 22:56 | 44.96401 | 0.05856 | 34195 ft | 430 kts | 337° |
| 2026-04-30 22:57 | 45.10570 | -0.00937 | 34190 ft | 430 kts | 338° |
| 2026-04-30 22:58 | 45.21870 | -0.06404 | 34222 ft | 428 kts | 338° |
| 2026-04-30 22:59 | 45.38772 | -0.14591 | 34207 ft | 427 kts | 339° |